createdAt,value
2023-05-14T00:02:14.013Z,3.13
2023-05-14T00:07:16.784Z,3.78
2023-05-14T00:12:20.073Z,3.50
2023-05-14T00:22:23.961Z,3.00
2023-05-14T00:27:27.309Z,4.03
2023-05-14T00:32:29.289Z,3.83
2023-05-14T00:37:31.552Z,3.65
2023-05-14T00:42:34.871Z,2.78
2023-05-14T00:47:39.231Z,3.88
2023-05-14T00:52:41.609Z,3.63
2023-05-14T00:57:45.185Z,3.22
2023-05-14T01:02:47.229Z,4.15
2023-05-14T01:07:57.963Z,3.50
2023-05-14T01:13:08.302Z,3.78
2023-05-14T01:18:13.475Z,3.80
2023-05-14T01:23:16.980Z,3.53
2023-05-14T01:28:20.472Z,3.42
2023-05-14T01:33:25.915Z,3.70
2023-05-14T01:38:31.682Z,4.30
2023-05-14T01:43:35.517Z,3.70
2023-05-14T01:48:37.840Z,3.88
2023-05-14T01:53:41.193Z,4.22
2023-05-14T01:58:43.116Z,4.43
2023-05-14T02:03:45.071Z,3.67
2023-05-14T02:08:48.478Z,3.63
2023-05-14T02:13:50.477Z,3.45
2023-05-14T02:18:52.414Z,4.00
2023-05-14T02:23:56.284Z,4.03
2023-05-14T02:28:58.278Z,3.30
2023-05-14T02:34:01.171Z,3.63
2023-05-14T02:39:04.879Z,3.25
2023-05-14T02:44:06.865Z,3.70
2023-05-14T02:49:08.775Z,3.50
2023-05-14T02:54:12.138Z,3.35
2023-05-14T02:59:14.467Z,4.20
2023-05-14T03:04:16.964Z,3.90
2023-05-14T03:09:20.687Z,3.35
2023-05-14T03:14:22.693Z,2.90
2023-05-14T03:19:24.911Z,3.47
2023-05-14T03:24:28.194Z,3.65
2023-05-14T03:29:30.380Z,3.55
2023-05-14T03:34:32.764Z,2.92
2023-05-14T03:39:36.238Z,3.75
2023-05-14T03:44:38.191Z,3.55
2023-05-14T03:49:40.098Z,3.05
2023-05-14T03:54:43.416Z,3.33
2023-05-14T03:59:45.302Z,3.28
2023-05-14T04:04:47.265Z,3.50
2023-05-14T04:09:50.629Z,3.60
2023-05-14T04:14:52.678Z,3.78
2023-05-14T04:19:54.648Z,3.35
2023-05-14T04:24:57.931Z,3.25
2023-05-14T04:29:59.873Z,3.55
2023-05-14T04:35:02.106Z,3.65
2023-05-14T04:40:08.005Z,3.65
2023-05-14T04:45:10.883Z,3.28
2023-05-14T04:50:13.161Z,3.45
2023-05-14T04:55:16.573Z,3.75
2023-05-14T05:00:19.166Z,3.28
2023-05-14T05:05:21.442Z,3.58
2023-05-14T05:10:25.428Z,3.22
2023-05-14T05:15:27.598Z,4.65
2023-05-14T05:20:29.627Z,3.90
2023-05-14T05:25:32.938Z,3.67
2023-05-14T05:30:35.097Z,3.85
2023-05-14T05:35:37.356Z,3.85
2023-05-14T05:40:40.776Z,4.10
2023-05-14T05:45:42.952Z,3.45
2023-05-14T05:50:47.527Z,2.80
2023-05-14T05:55:51.657Z,3.95
2023-05-14T06:00:53.813Z,3.33
2023-05-14T06:05:55.783Z,4.18
2023-05-14T06:10:59.214Z,3.40
2023-05-14T06:16:01.302Z,3.80
2023-05-14T06:21:03.514Z,4.03
2023-05-14T06:26:06.939Z,3.50
2023-05-14T06:31:08.909Z,4.25
2023-05-14T06:36:11.007Z,4.90
2023-05-14T06:41:14.354Z,4.32
2023-05-14T06:46:16.354Z,3.75
2023-05-14T06:51:18.380Z,3.70
2023-05-14T06:56:22.360Z,4.03
2023-05-14T07:01:24.346Z,3.85
2023-05-14T07:06:26.370Z,3.58
2023-05-14T07:11:29.831Z,4.00
2023-05-14T07:16:31.804Z,3.85
2023-05-14T07:21:36.984Z,3.67
2023-05-14T07:26:41.034Z,3.45
2023-05-14T07:31:43.270Z,4.53
2023-05-14T07:36:45.366Z,4.30
2023-05-14T07:41:50.102Z,3.45
2023-05-14T07:46:52.080Z,3.22
2023-05-14T07:51:54.040Z,4.25
2023-05-14T07:56:57.367Z,3.95
2023-05-14T08:01:59.437Z,4.03
2023-05-14T08:07:01.711Z,3.75
2023-05-14T08:12:06.297Z,2.33
2023-05-14T08:17:08.421Z,2.78
2023-05-14T08:22:10.610Z,3.45
2023-05-14T08:27:13.954Z,2.53
2023-05-14T08:32:22.927Z,2.75
2023-05-14T08:37:25.959Z,2.83
2023-05-14T08:42:29.359Z,3.63
2023-05-14T08:47:31.680Z,2.45
2023-05-14T08:52:34.540Z,3.28
2023-05-14T08:57:38.068Z,2.58
2023-05-14T09:02:41.692Z,4.53
2023-05-14T09:07:43.787Z,3.92
2023-05-14T09:12:47.093Z,3.35
2023-05-14T09:17:49.260Z,5.25
2023-05-14T09:22:52.990Z,3.75
2023-05-14T09:27:58.635Z,4.78
2023-05-14T09:33:01.491Z,5.47
2023-05-14T09:38:03.594Z,4.22
2023-05-14T09:43:06.933Z,4.00
2023-05-14T09:48:08.966Z,3.58
2023-05-14T09:58:14.768Z,3.13
2023-05-14T10:03:19.962Z,4.78
2023-05-14T10:08:26.729Z,4.40
2023-05-14T10:13:31.895Z,4.20
2023-05-14T10:18:39.792Z,4.07
2023-05-14T10:23:42.770Z,3.22
2023-05-14T10:28:46.583Z,3.67
2023-05-14T10:33:50.487Z,3.58
2023-05-14T10:38:57.210Z,4.15
2023-05-14T10:44:08.783Z,4.43
2023-05-14T10:49:11.450Z,3.47
2023-05-14T10:54:13.462Z,3.83
2023-05-14T11:04:23.229Z,3.13
2023-05-14T11:09:26.843Z,4.28
2023-05-14T11:14:30.243Z,3.83
2023-05-14T11:19:32.234Z,3.72
2023-05-14T11:29:38.202Z,3.47
2023-05-14T11:34:41.497Z,3.03
2023-05-14T11:39:47.977Z,2.88
2023-05-14T11:44:53.847Z,3.22
2023-05-14T11:49:55.845Z,3.30
2023-05-14T12:00:01.122Z,3.05
2023-05-14T12:05:07.112Z,2.85
2023-05-14T12:10:12.108Z,3.30
2023-05-14T12:15:19.082Z,2.75
2023-05-14T12:20:21.152Z,1.83
2023-05-14T12:25:25.694Z,2.63
2023-05-14T12:30:37.535Z,2.13
2023-05-14T12:35:39.607Z,2.17
2023-05-14T12:40:41.581Z,2.42
2023-05-14T12:50:48.527Z,2.25
2023-05-14T12:55:50.668Z,2.58
2023-05-14T13:01:02.399Z,1.85
2023-05-14T13:06:14.424Z,1.70
2023-05-14T13:16:19.774Z,2.03
2023-05-14T13:21:22.064Z,2.15
2023-05-14T13:26:26.480Z,2.10
2023-05-14T13:31:30.150Z,1.92
2023-05-14T13:36:32.326Z,2.17
2023-05-14T13:46:41.429Z,2.22
2023-05-14T13:51:43.400Z,1.90
2023-05-14T13:56:45.448Z,2.17
2023-05-14T14:06:52.061Z,2.50
2023-05-14T14:11:54.171Z,2.63
2023-05-14T14:21:59.510Z,2.65
2023-05-14T14:27:02.312Z,2.30
2023-05-14T14:32:06.582Z,2.53
2023-05-14T14:37:08.808Z,2.67
2023-05-14T14:47:14.138Z,3.03
2023-05-14T14:52:16.202Z,3.80
2023-05-14T15:02:21.988Z,2.40
2023-05-14T15:07:24.166Z,2.50
2023-05-14T15:17:29.555Z,2.35
2023-05-14T15:22:31.652Z,3.10
2023-05-14T15:27:33.606Z,3.00
2023-05-14T15:32:37.145Z,2.22
2023-05-14T15:37:41.252Z,2.38
2023-05-14T15:42:43.995Z,2.58
2023-05-14T15:47:47.386Z,2.58
2023-05-14T15:52:49.510Z,2.42
2023-05-14T15:57:51.470Z,2.40
2023-05-14T16:02:54.887Z,2.92
2023-05-14T16:07:57.060Z,2.80
2023-05-14T16:12:59.064Z,2.90
2023-05-14T16:18:02.468Z,2.90
2023-05-14T16:23:04.546Z,2.60
2023-05-14T16:28:07.918Z,2.83
2023-05-14T16:33:11.881Z,2.30
2023-05-14T16:38:14.546Z,2.15
2023-05-14T16:43:16.619Z,2.70
2023-05-14T16:48:20.138Z,2.40
2023-05-14T16:53:22.160Z,2.15
2023-05-14T16:58:24.117Z,2.13
2023-05-14T17:03:27.417Z,3.03
2023-05-14T17:08:33.351Z,2.78
2023-05-14T17:13:35.623Z,3.20
2023-05-14T17:18:50.403Z,3.03
2023-05-14T17:23:52.466Z,2.90
2023-05-14T17:28:54.554Z,2.70
2023-05-14T17:33:58.768Z,2.75
2023-05-14T17:39:00.804Z,2.90
2023-05-14T17:44:02.806Z,3.20
2023-05-14T17:49:06.124Z,2.75
2023-05-14T17:54:08.159Z,3.20
2023-05-14T17:59:10.210Z,2.33
2023-05-14T18:04:13.748Z,2.70
2023-05-14T18:09:15.921Z,2.53
2023-05-14T18:14:18.587Z,2.90
2023-05-14T18:24:23.992Z,2.63
2023-05-14T18:29:26.019Z,3.28
2023-05-14T18:34:29.328Z,3.47
2023-05-14T18:39:31.313Z,2.97
2023-05-14T18:44:33.331Z,2.83
2023-05-14T18:49:39.132Z,3.03
2023-05-14T18:54:41.086Z,3.22
2023-05-14T18:59:43.070Z,3.20
2023-05-14T19:09:51.253Z,3.00
2023-05-14T19:14:53.219Z,3.05
2023-05-14T19:19:56.693Z,2.95
2023-05-14T19:24:58.654Z,2.33
2023-05-14T19:30:00.703Z,2.88
2023-05-14T19:35:04.622Z,3.90
2023-05-14T19:40:07.835Z,6.97
2023-05-14T19:45:10.588Z,7.00
2023-05-14T19:55:15.901Z,6.30
2023-05-14T20:00:18.192Z,5.63
2023-05-14T20:05:21.538Z,4.72
2023-05-14T20:10:24.204Z,3.10
2023-05-14T20:15:26.643Z,2.55
2023-05-14T20:20:32.864Z,3.30
2023-05-14T20:25:35.511Z,2.90
2023-05-14T20:30:37.585Z,2.88
2023-05-14T20:35:43.805Z,2.88
2023-05-14T20:40:45.930Z,3.00
2023-05-14T20:45:47.968Z,3.42
2023-05-14T20:50:51.284Z,2.92
2023-05-14T20:55:53.322Z,3.20
2023-05-14T21:00:55.292Z,3.83
2023-05-14T21:06:00.488Z,3.33
2023-05-14T21:11:02.497Z,3.33
2023-05-14T21:16:05.133Z,4.05
2023-05-14T21:21:08.487Z,3.70
2023-05-14T21:26:10.503Z,3.15
2023-05-14T21:31:12.469Z,2.53
2023-05-14T21:36:15.973Z,3.08
2023-05-14T21:41:17.980Z,2.88
2023-05-14T21:46:19.969Z,2.53
2023-05-14T21:51:23.784Z,2.83
2023-05-14T21:56:26.290Z,2.63
2023-05-14T22:01:28.322Z,2.65
2023-05-14T22:06:32.313Z,3.38
2023-05-14T22:11:34.311Z,3.20
2023-05-14T22:16:36.544Z,2.75
2023-05-14T22:21:40.032Z,3.42
2023-05-14T22:26:42.027Z,3.58
2023-05-14T22:31:44.153Z,3.00
2023-05-14T22:36:47.445Z,3.00
2023-05-14T22:41:54.792Z,3.35
2023-05-14T22:46:56.950Z,3.58
2023-05-14T22:52:00.500Z,2.67
2023-05-14T22:57:03.213Z,2.90
2023-05-14T23:02:05.242Z,2.33
2023-05-14T23:07:08.772Z,2.90
2023-05-14T23:12:10.765Z,2.60
2023-05-14T23:17:12.774Z,2.83
2023-05-14T23:22:16.166Z,2.53
2023-05-14T23:27:18.152Z,2.72
2023-05-14T23:32:20.114Z,2.35
2023-05-14T23:37:23.457Z,3.33
2023-05-14T23:42:25.490Z,2.67
2023-05-14T23:47:27.557Z,2.30
2023-05-14T23:52:30.905Z,2.65
2023-05-14T23:57:32.925Z,2.63
